Time;durP1;ratioP1;P1;durP2;ratioP2;P2;SDS_P1;SDS_P2;PMS_P1;PMS_P2;Temp;Humidity;BMP_temperature;BMP_pressure;BME280_temperature;BME280_humidity;BME280_pressure;Samples;Min_cycle;Max_cycle;Signal;HPM_P1;HPM_P2
2021/07/05 00:01:13;;;;;;;3.30;3.10;;;;;;;17.35;78.09;100584.59;5016453;28;20104;-73
2021/07/05 00:03:38;;;;;;;3.15;2.95;;;;;;;17.70;77.05;100588.22;5016643;28;20017;-73
2021/07/05 00:06:04;;;;;;;3.03;2.83;;;;;;;17.84;76.40;100574.31;5000283;28;20029;-72
2021/07/05 00:08:29;;;;;;;7.65;3.00;;;;;;;17.84;75.95;100581.41;5016606;28;20026;-72
2021/07/05 00:10:55;;;;;;;3.15;2.95;;;;;;;17.86;75.74;100584.81;5016653;28;20485;-73
2021/07/05 00:13:20;;;;;;;3.38;3.17;;;;;;;17.58;76.81;100580.88;4999797;28;20034;-73
2021/07/05 00:15:45;;;;;;;6.03;3.05;;;;;;;17.57;77.44;100592.34;5000135;28;20048;-73
2021/07/05 00:18:11;;;;;;;3.50;3.20;;;;;;;17.49;78.05;100586.56;5016463;28;20331;-73
2021/07/05 00:20:43;;;;;;;3.25;3.05;;;;;;;17.47;78.54;100594.56;5000029;28;20028;-73
2021/07/05 00:23:10;;;;;;;3.95;3.42;;;;;;;17.51;77.43;100597.94;5015989;28;20059;-73
2021/07/05 00:25:36;;;;;;;3.05;2.85;;;;;;;17.53;77.31;100590.78;5000202;28;20021;-73
2021/07/05 00:28:01;;;;;;;3.53;3.33;;;;;;;17.41;77.58;100581.69;5016641;28;20416;-73
2021/07/05 00:30:27;;;;;;;3.42;3.13;;;;;;;17.22;78.36;100581.66;5016585;28;20032;-72
2021/07/05 00:32:52;;;;;;;2.72;2.63;;;;;;;17.35;78.02;100584.59;5016593;28;20025;-73
2021/07/05 00:35:19;;;;;;;3.33;3.13;;;;;;;17.12;79.05;100581.22;5017131;28;20340;-73
2021/07/05 00:37:48;;;;;;;3.88;3.47;;;;;;;17.08;78.60;100582.28;5032042;28;20112;-74
2021/07/05 00:40:14;;;;;;;3.75;3.05;;;;;;;17.23;77.52;100562.25;5016900;28;20056;-73
2021/07/05 00:42:40;;;;;;;4.88;3.13;;;;;;;17.36;76.97;100565.19;5032842;28;20025;-73
2021/07/05 00:45:07;;;;;;;3.30;2.92;;;;;;;17.32;77.07;100567.09;5015775;28;20076;-72
2021/07/05 00:47:33;;;;;;;3.20;3.05;;;;;;;17.33;76.91;100565.31;5015419;28;20419;-72
2021/07/05 00:49:58;;;;;;;3.20;2.90;;;;;;;17.35;77.01;100571.38;5016497;28;20021;-72
2021/07/05 00:52:24;;;;;;;2.80;2.70;;;;;;;17.44;76.21;100567.44;5018789;28;20285;-73
2021/07/05 00:54:49;;;;;;;3.10;2.90;;;;;;;17.47;76.49;100562.88;5019063;28;20090;-73
2021/07/05 00:57:21;;;;;;;2.67;2.58;;;;;;;17.51;76.45;100558.34;5019304;28;20087;-73
2021/07/05 00:59:47;;;;;;;2.83;2.72;;;;;;;17.47;76.28;100554.97;5020057;28;20029;-73
2021/07/05 01:02:13;;;;;;;3.20;2.83;;;;;;;17.51;76.51;100550.41;5018579;28;20025;-74
2021/07/05 01:04:38;;;;;;;3.00;2.80;;;;;;;17.49;76.43;100549.63;5018852;28;20446;-73
2021/07/05 01:07:04;;;;;;;3.50;3.30;;;;;;;17.45;76.89;100541.00;5019217;28;20061;-74
2021/07/05 01:09:29;;;;;;;3.15;3.03;;;;;;;17.43;76.69;100542.00;5018778;28;20108;-73
2021/07/05 01:11:54;;;;;;;3.63;3.15;;;;;;;17.42;76.83;100541.13;5018574;28;20036;-73
2021/07/05 01:14:20;;;;;;;3.30;3.00;;;;;;;17.47;76.49;100544.41;5018818;28;20025;-73
2021/07/05 01:16:45;;;;;;;3.20;2.90;;;;;;;17.49;76.72;100545.22;5018863;28;20029;-73
2021/07/05 01:19:11;;;;;;;3.25;2.58;;;;;;;17.40;77.45;100543.84;5018766;28;20021;-73
2021/07/05 01:21:36;;;;;;;3.67;3.38;;;;;;;17.37;77.82;100546.63;5018274;28;20105;-74
2021/07/05 01:24:02;;;;;;;3.05;2.88;;;;;;;17.45;77.56;100542.75;5018456;28;20032;-73
2021/07/05 01:26:28;;;;;;;3.42;3.17;;;;;;;17.23;78.08;100541.13;5018845;28;20025;-73
2021/07/05 01:28:53;;;;;;;3.40;3.20;;;;;;;17.46;77.26;100544.47;5018718;28;20025;-73
2021/07/05 01:31:18;;;;;;;3.00;2.90;;;;;;;17.21;78.19;100535.06;5019035;28;20021;-74
2021/07/05 01:33:44;;;;;;;2.97;2.80;;;;;;;17.32;77.81;100537.22;5019149;28;20045;-73
2021/07/05 01:36:11;;;;;;;3.17;2.92;;;;;;;17.44;77.22;100536.63;5019381;28;20037;-74
2021/07/05 01:38:40;;;;;;;2.75;2.65;;;;;;;17.52;76.84;100525.69;5018295;28;20030;-73
2021/07/05 01:41:06;;;;;;;3.13;2.92;;;;;;;17.36;77.29;100542.28;5018164;28;20026;-73
2021/07/05 01:43:32;;;;;;;3.40;3.20;;;;;;;17.33;77.59;100534.50;5019223;28;20323;-73
2021/07/05 01:45:57;;;;;;;3.70;3.50;;;;;;;17.04;78.95;100539.34;5018778;28;20029;-74
2021/07/05 01:48:24;;;;;;;2.95;2.83;;;;;;;17.33;77.83;100533.63;5018697;28;20021;-73
2021/07/05 01:50:49;;;;;;;3.38;3.17;;;;;;;17.05;79.29;100532.28;5036050;28;20169;-73
2021/07/05 01:53:15;;;;;;;3.72;3.53;;;;;;;17.03;79.98;100537.63;5035087;28;20104;-73
2021/07/05 01:55:40;;;;;;;3.97;3.28;;;;;;;16.93;80.92;100557.44;5018481;28;20110;-74
2021/07/05 01:58:07;;;;;;;3.58;3.38;;;;;;;16.70;82.44;100546.13;5018842;28;20163;-73
2021/07/05 02:00:35;;;;;;;4.35;4.05;;;;;;;16.45;84.41;100556.00;5018011;28;20021;-73
2021/07/05 02:03:01;;;;;;;4.63;4.22;;;;;;;16.46;85.14;100563.00;5018307;28;20025;-73
2021/07/05 02:05:27;;;;;;;4.85;4.55;;;;;;;16.53;85.22;100559.16;5018510;28;20032;-73
2021/07/05 02:07:53;;;;;;;4.63;4.35;;;;;;;16.34;87.39;100551.19;5018163;28;20024;-73
2021/07/05 02:10:29;;;;;;;7.13;4.97;;;;;;;16.15;88.06;100556.38;5017830;28;20450;-73
2021/07/05 02:12:56;;;;;;;5.75;5.25;;;;;;;16.19;88.34;100557.97;5017586;28;20312;-73
2021/07/05 02:15:25;;;;;;;5.63;4.72;;;;;;;16.26;88.70;100562.06;5018182;28;20041;-73
2021/07/05 02:17:51;;;;;;;5.35;5.05;;;;;;;16.19;88.67;100550.91;5018085;28;20025;-73
2021/07/05 02:20:20;;;;;;;6.80;5.32;;;;;;;16.21;89.33;100542.94;5017712;28;20071;-73
2021/07/05 02:22:46;;;;;;;5.18;4.53;;;;;;;16.08;89.75;100539.13;5017298;28;20025;-73
2021/07/05 02:25:13;;;;;;;5.75;5.05;;;;;;;16.07;90.59;100540.03;5017558;28;20068;-73
2021/07/05 02:27:40;;;;;;;6.32;5.55;;;;;;;15.98;90.60;100541.25;5035251;28;20414;-73
2021/07/05 02:30:09;;;;;;;7.00;5.03;;;;;;;16.01;90.53;100547.25;5001074;28;20089;-73
2021/07/05 02:32:35;;;;;;;5.43;5.03;;;;;;;15.94;91.09;100545.81;5016981;28;20320;-73
2021/07/05 02:35:00;;;;;;;4.75;4.38;;;;;;;16.08;92.28;100536.50;5033632;28;20029;-73
2021/07/05 02:37:26;;;;;;;4.68;4.38;;;;;;;16.11;91.93;100531.09;5001082;28;20492;-73
2021/07/05 02:39:51;;;;;;;5.00;4.53;;;;;;;16.16;91.28;100529.13;5017090;28;20029;-73
2021/07/05 02:42:17;;;;;;;5.45;5.03;;;;;;;16.02;91.12;100527.91;5016963;28;20096;-73
2021/07/05 02:44:42;;;;;;;5.03;4.65;;;;;;;16.18;91.11;100528.13;5000796;28;20056;-73
2021/07/05 02:47:07;;;;;;;5.32;5.03;;;;;;;16.01;91.21;100526.19;5017336;28;20029;-73
2021/07/05 02:49:32;;;;;;;5.88;5.50;;;;;;;15.97;92.83;100519.34;5017143;28;20092;-73
2021/07/05 02:51:58;;;;;;;6.65;5.75;;;;;;;15.86;92.25;100524.19;5016601;28;20112;-73
2021/07/05 02:54:23;;;;;;;6.03;5.57;;;;;;;15.93;91.96;100523.03;5017173;28;20029;-73
2021/07/05 02:56:48;;;;;;;5.50;4.97;;;;;;;15.98;92.23;100526.31;5016672;28;20043;-73
2021/07/05 02:59:14;;;;;;;5.68;5.28;;;;;;;16.09;91.72;100525.00;5017038;28;20399;-74
2021/07/05 03:01:39;;;;;;;6.45;5.85;;;;;;;16.04;91.13;100518.16;5016211;28;20106;-73
2021/07/05 03:04:04;;;;;;;6.65;6.15;;;;;;;16.13;91.48;100523.97;5016798;28;20029;-73
2021/07/05 03:06:30;;;;;;;6.57;5.80;;;;;;;16.05;91.59;100527.78;5017191;28;20108;-73
2021/07/05 03:08:55;;;;;;;8.07;7.38;;;;;;;16.01;90.96;100525.34;5016756;28;20033;-74
2021/07/05 03:11:20;;;;;;;8.73;7.78;;;;;;;16.04;91.52;100525.22;5016341;28;20025;-74
2021/07/05 03:13:46;;;;;;;9.40;7.28;;;;;;;16.12;91.71;100527.53;5033848;28;20027;-73
2021/07/05 03:16:11;;;;;;;10.15;9.02;;;;;;;16.22;91.35;100528.84;5032969;28;20481;-73
2021/07/05 03:18:37;;;;;;;8.82;8.05;;;;;;;16.20;91.57;100536.81;5016481;28;20335;-74
2021/07/05 03:21:02;;;;;;;10.60;9.60;;;;;;;16.18;92.31;100537.81;4999362;28;20130;-73
2021/07/05 03:23:28;;;;;;;9.77;8.90;;;;;;;16.23;91.75;100530.56;5016218;28;20037;-74
2021/07/05 03:25:54;;;;;;;10.52;9.52;;;;;;;16.29;91.09;100534.72;5016577;28;20049;-74
2021/07/05 03:28:20;;;;;;;9.52;8.75;;;;;;;16.22;91.01;100527.09;5016539;28;20434;-74
2021/07/05 03:30:48;;;;;;;10.85;9.73;;;;;;;16.31;91.67;100535.53;5032515;28;20056;-74
2021/07/05 03:33:14;;;;;;;10.18;9.18;;;;;;;16.35;91.97;100535.31;5032280;28;20025;-74
2021/07/05 03:35:39;;;;;;;10.52;9.63;;;;;;;16.31;90.79;100539.00;5016434;28;20236;-74
2021/07/05 03:38:05;;;;;;;11.27;10.23;;;;;;;16.23;91.24;100552.50;4999547;28;20017;-74
2021/07/05 03:40:33;;;;;;;11.02;10.02;;;;;;;16.35;90.40;100551.13;5016671;28;20104;-73
2021/07/05 03:42:59;;;;;;;10.38;9.57;;;;;;;16.34;91.09;100538.00;5015941;28;20311;-73
2021/07/05 03:45:30;;;;;;;11.27;10.18;;;;;;;16.13;91.76;100545.03;5016221;28;20032;-73
2021/07/05 03:47:57;;;;;;;13.50;10.68;;;;;;;15.97;92.86;100545.69;5033597;28;20086;-73
2021/07/05 03:50:23;;;;;;;11.95;10.75;;;;;;;16.11;91.87;100544.25;5016315;28;20018;-73
2021/07/05 03:52:49;;;;;;;10.30;9.50;;;;;;;16.26;91.53;100540.97;5015526;28;20567;-73
2021/07/05 03:55:18;;;;;;;10.25;9.45;;;;;;;16.19;92.47;100540.38;5016195;28;20112;-73
2021/07/05 03:57:44;;;;;;;10.68;9.70;;;;;;;16.12;91.46;100543.34;5032510;28;20025;-74
2021/07/05 04:00:22;;;;;;;11.32;10.13;;;;;;;16.24;90.39;100537.56;5016099;28;20079;-74
2021/07/05 04:02:47;;;;;;;12.82;10.30;;;;;;;16.30;90.55;100534.66;4999212;28;20036;-74
2021/07/05 04:05:13;;;;;;;11.25;10.15;;;;;;;16.15;90.55;100544.06;5015889;28;20025;-74
2021/07/05 04:07:41;;;;;;;11.35;10.25;;;;;;;16.26;91.55;100545.41;5015729;28;20026;-74
2021/07/05 04:10:06;;;;;;;12.20;11.00;;;;;;;16.31;91.61;100549.53;5033248;28;20177;-74
2021/07/05 04:12:33;;;;;;;12.18;10.95;;;;;;;16.16;92.24;100542.28;4998772;28;20112;-74
2021/07/05 04:14:59;;;;;;;12.23;11.20;;;;;;;16.09;91.14;100540.81;5015854;28;20378;-74
2021/07/05 04:17:24;;;;;;;13.00;11.35;;;;;;;16.20;90.73;100544.72;5015548;28;20018;-74
2021/07/05 04:19:50;;;;;;;12.85;10.68;;;;;;;16.41;90.43;100543.88;5015686;28;20079;-73
2021/07/05 04:22:16;;;;;;;13.95;10.88;;;;;;;16.17;90.18;100541.34;5015109;28;20335;-74
2021/07/05 04:24:42;;;;;;;12.18;10.88;;;;;;;16.14;90.56;100552.91;5001086;28;20121;-74
2021/07/05 04:27:08;;;;;;;11.18;10.07;;;;;;;16.32;90.39;100539.84;5019429;28;20025;-74
2021/07/05 04:29:34;;;;;;;12.48;10.48;;;;;;;16.36;90.44;100539.66;5019467;28;20024;-74
2021/07/05 04:31:59;;;;;;;11.35;10.13;;;;;;;16.29;90.26;100546.13;5035294;28;20155;-74
2021/07/05 04:34:24;;;;;;;12.15;10.82;;;;;;;16.14;90.63;100541.47;5019408;28;20052;-74
2021/07/05 04:36:50;;;;;;;10.20;9.27;;;;;;;16.19;90.93;100539.53;5019374;28;20120;-74
2021/07/05 04:39:15;;;;;;;12.00;10.50;;;;;;;16.05;91.24;100543.59;5019238;28;20338;-74
2021/07/05 04:41:40;;;;;;;10.63;9.82;;;;;;;16.17;90.18;100543.97;5036488;28;20021;-74
2021/07/05 04:44:06;;;;;;;10.32;8.75;;;;;;;16.40;89.83;100548.28;5018843;28;20025;-74
2021/07/05 04:46:31;;;;;;;10.10;9.13;;;;;;;16.33;88.73;100542.44;5037031;28;20029;-74
2021/07/05 04:48:57;;;;;;;9.77;8.85;;;;;;;16.28;88.91;100531.22;5019008;28;20375;-74
2021/07/05 04:51:26;;;;;;;9.57;8.77;;;;;;;16.45;88.04;100542.84;5018823;28;20033;-74
2021/07/05 04:53:51;;;;;;;9.13;8.43;;;;;;;16.56;88.20;100537.94;5018883;28;20339;-74
2021/07/05 04:56:17;;;;;;;12.63;9.45;;;;;;;16.50;87.90;100540.84;5018936;28;20029;-74
2021/07/05 04:58:43;;;;;;;10.73;9.88;;;;;;;16.18;89.13;100540.44;5013027;28;20033;-73
2021/07/05 05:01:08;;;;;;;11.00;9.98;;;;;;;15.98;88.49;100541.25;5019341;28;20033;-74
2021/07/05 05:03:33;;;;;;;11.43;10.43;;;;;;;16.09;88.73;100540.81;5019690;28;20438;-74
2021/07/05 05:05:59;;;;;;;10.75;9.85;;;;;;;16.02;88.73;100533.19;5019707;28;20304;-74
2021/07/05 05:08:24;;;;;;;11.45;10.35;;;;;;;16.09;88.11;100541.69;5019355;28;20025;-74
2021/07/05 05:10:49;;;;;;;11.75;10.75;;;;;;;15.78;89.02;100534.16;5019471;28;20041;-74
2021/07/05 05:13:15;;;;;;;10.73;9.57;;;;;;;16.12;88.73;100540.72;5018707;28;20108;-74
2021/07/05 05:15:40;;;;;;;11.85;10.43;;;;;;;16.19;86.76;100534.25;5019415;28;20123;-74
2021/07/05 05:18:06;;;;;;;10.95;9.88;;;;;;;16.28;87.35;100538.25;5019291;28;20438;-74
2021/07/05 05:20:32;;;;;;;9.95;9.05;;;;;;;16.25;88.06;100539.25;5019130;28;20032;-74
2021/07/05 05:22:57;;;;;;;12.23;11.10;;;;;;;16.14;89.33;100542.38;5019386;28;20083;-74
2021/07/05 05:25:23;;;;;;;11.40;10.30;;;;;;;16.23;87.59;100543.75;5019342;28;20025;-74
2021/07/05 05:27:49;;;;;;;11.10;10.15;;;;;;;16.33;88.22;100542.44;5035367;28;20127;-73
2021/07/05 05:30:16;;;;;;;12.63;9.93;;;;;;;16.14;89.12;100546.75;5018968;28;20049;-74
2021/07/05 05:32:43;;;;;;;12.20;10.65;;;;;;;16.24;88.04;100542.81;5002616;28;20022;-73
2021/07/05 05:35:09;;;;;;;10.98;9.77;;;;;;;16.32;87.71;100537.22;5019042;28;20032;-74
2021/07/05 05:37:34;;;;;;;10.70;9.70;;;;;;;16.27;88.39;100547.97;5018495;28;20022;-74
2021/07/05 05:40:00;;;;;;;11.45;10.32;;;;;;;16.42;88.12;100553.50;5019108;28;20033;-74
2021/07/05 05:42:25;;;;;;;14.60;10.05;;;;;;;16.55;87.81;100542.38;5018587;28;20309;-74
2021/07/05 05:44:53;;;;;;;9.73;8.88;;;;;;;16.67;86.25;100551.50;5018986;28;20032;-74
2021/07/05 05:47:18;;;;;;;13.10;9.48;;;;;;;16.59;87.29;100563.31;5018746;28;20088;-73
2021/07/05 05:49:43;;;;;;;10.85;9.95;;;;;;;16.38;88.89;100553.63;5019033;28;20067;-74
2021/07/05 05:52:09;;;;;;;15.32;10.45;;;;;;;16.30;88.80;100553.09;5018766;28;20031;-73
2021/07/05 05:54:34;;;;;;;10.68;9.77;;;;;;;16.06;88.56;100547.09;5019011;28;20029;-73
2021/07/05 05:57:00;;;;;;;10.05;9.07;;;;;;;16.13;88.18;100555.56;5018759;28;20415;-73
2021/07/05 05:59:25;;;;;;;14.15;9.68;;;;;;;15.98;86.75;100555.31;5018558;28;20076;-74
2021/07/05 06:01:50;;;;;;;10.63;9.75;;;;;;;15.96;87.79;100554.50;5033509;28;20044;-74
2021/07/05 06:04:17;;;;;;;9.77;9.05;;;;;;;16.20;87.07;100562.31;5018804;28;20025;-74
2021/07/05 06:06:43;;;;;;;10.15;9.27;;;;;;;16.31;87.93;100553.97;5031921;28;20087;-74
2021/07/05 06:09:08;;;;;;;10.57;9.65;;;;;;;16.08;87.32;100552.28;5002151;28;20106;-74
2021/07/05 06:11:35;;;;;;;10.13;9.23;;;;;;;16.03;88.59;100558.63;5005980;28;20123;-74
2021/07/05 06:14:01;;;;;;;10.88;9.82;;;;;;;16.12;87.73;100551.25;4998764;28;20029;-74
2021/07/05 06:16:26;;;;;;;10.93;10.05;;;;;;;16.05;88.04;100554.13;5016660;28;20065;-76
2021/07/05 06:18:51;;;;;;;14.55;10.32;;;;;;;15.94;88.37;100556.34;5015725;28;20040;-76
2021/07/05 06:21:19;;;;;;;10.07;9.07;;;;;;;16.02;87.06;100553.38;5016722;28;20288;-74
2021/07/05 06:23:44;;;;;;;11.52;10.40;;;;;;;15.97;88.20;100566.75;5017856;28;20545;-72
2021/07/05 06:26:10;;;;;;;13.63;9.75;;;;;;;16.04;87.68;100562.09;5018170;28;20108;-73
2021/07/05 06:28:35;;;;;;;12.07;11.07;;;;;;;15.89;86.79;100561.78;5001806;28;20033;-73
2021/07/05 06:31:02;;;;;;;11.52;10.43;;;;;;;16.04;86.76;100565.56;5033703;28;20339;-73
2021/07/05 06:33:28;;;;;;;10.73;9.63;;;;;;;16.14;86.73;100570.47;5034837;28;20048;-73
2021/07/05 06:35:53;;;;;;;11.18;10.10;;;;;;;15.97;87.26;100561.47;5016746;28;20045;-73
2021/07/05 06:38:19;;;;;;;11.32;10.13;;;;;;;16.16;87.95;100566.00;5001367;28;20053;-74
2021/07/05 06:40:46;;;;;;;11.98;10.88;;;;;;;15.96;88.06;100569.44;5016871;28;20026;-74
2021/07/05 06:43:13;;;;;;;11.57;10.48;;;;;;;16.37;86.09;100565.13;5034674;28;20112;-73
2021/07/05 06:45:41;;;;;;;11.15;10.18;;;;;;;16.50;84.46;100567.22;5017176;28;20128;-74
2021/07/05 06:48:07;;;;;;;11.65;10.45;;;;;;;16.42;85.55;100564.91;5014851;28;20312;-74
2021/07/05 06:50:33;;;;;;;15.20;11.95;;;;;;;16.12;85.52;100559.16;5000393;28;20071;-73
2021/07/05 06:52:58;;;;;;;13.95;12.65;;;;;;;16.26;86.46;100561.22;5015317;28;20112;-74
2021/07/05 06:55:24;;;;;;;14.98;11.77;;;;;;;16.58;85.74;100559.84;5015398;28;20343;-73
2021/07/05 06:57:50;;;;;;;12.40;11.18;;;;;;;16.87;82.87;100563.81;5012969;28;20386;-74
2021/07/05 07:00:24;;;;;;;13.27;12.00;;;;;;;16.57;84.77;100560.75;4996365;28;20033;-74
2021/07/05 07:02:50;;;;;;;14.90;11.73;;;;;;;16.54;85.48;100555.63;5010443;28;20099;-74
2021/07/05 07:05:17;;;;;;;13.73;12.43;;;;;;;16.58;84.59;100554.56;5016066;28;20407;-73
2021/07/05 07:07:45;;;;;;;12.77;11.55;;;;;;;16.85;83.50;100548.97;5015332;28;20022;-74
2021/07/05 07:10:13;;;;;;;12.75;11.50;;;;;;;16.97;82.60;100553.72;5032361;28;20029;-74
2021/07/05 07:12:39;;;;;;;14.05;12.68;;;;;;;16.77;84.08;100551.09;5015005;28;20033;-74
2021/07/05 07:15:07;;;;;;;14.35;12.82;;;;;;;17.00;81.43;100553.63;5018671;28;20018;-74
2021/07/05 07:20:00;;;;;;;13.05;11.63;;;;;;;16.91;82.08;100538.19;5013694;28;20265;-73
2021/07/05 07:22:26;;;;;;;15.07;13.05;;;;;;;16.95;82.25;100537.13;5011579;28;20231;-75
2021/07/05 07:24:51;;;;;;;14.13;11.32;;;;;;;17.98;78.36;100535.84;4992418;28;20319;-73
2021/07/05 07:27:17;;;;;;;10.80;9.90;;;;;;;18.46;76.51;100522.84;5023879;28;20075;-73
2021/07/05 07:29:42;;;;;;;13.13;10.95;;;;;;;18.13;76.59;100521.00;5014316;28;20034;-73
2021/07/05 07:32:08;;;;;;;12.95;10.20;;;;;;;18.11;76.15;100525.53;5013858;28;20021;-73
2021/07/05 07:34:33;;;;;;;10.15;9.35;;;;;;;18.85;73.19;100526.97;5013258;28;20083;-73
2021/07/05 07:37:03;;;;;;;10.23;9.43;;;;;;;18.95;72.41;100522.94;5000022;28;20044;-73
2021/07/05 07:39:37;;;;;;;10.75;9.80;;;;;;;18.31;75.13;100517.44;5002637;28;20435;-73
2021/07/05 07:42:02;;;;;;;10.60;9.50;;;;;;;18.72;72.29;100522.34;4998697;28;20321;-73
2021/07/05 07:44:28;;;;;;;9.15;8.48;;;;;;;19.12;72.74;100518.53;5012563;28;20033;-75
2021/07/05 07:46:53;;;;;;;8.75;7.95;;;;;;;19.61;67.98;100526.38;5021326;28;20025;-73
2021/07/05 07:49:18;;;;;;;6.47;6.05;;;;;;;20.65;65.47;100523.84;5030481;28;20032;-75
2021/07/05 07:51:44;;;;;;;6.18;5.75;;;;;;;22.26;61.09;100518.91;5013549;28;20018;-75
2021/07/05 07:54:09;;;;;;;6.00;5.47;;;;;;;23.06;58.82;100518.69;5010655;28;20029;-74
2021/07/05 07:56:35;;;;;;;5.22;4.72;;;;;;;22.76;57.84;100522.56;5035030;28;20091;-77
2021/07/05 07:59:02;;;;;;;6.22;5.82;;;;;;;21.23;62.54;100535.31;5011368;28;20030;-76
2021/07/05 08:01:28;;;;;;;6.63;6.22;;;;;;;19.62;66.33;100517.50;5009963;28;20072;-75
2021/07/05 08:03:53;;;;;;;6.80;6.40;;;;;;;19.27;69.02;100517.66;5031669;28;20026;-77
2021/07/05 08:06:18;;;;;;;7.47;6.57;;;;;;;18.72;69.80;100522.34;5016004;28;20477;-76
2021/07/05 08:08:47;;;;;;;7.47;6.93;;;;;;;18.84;70.86;100514.69;5016795;28;20113;-76
2021/07/05 08:11:13;;;;;;;6.25;5.78;;;;;;;20.23;66.69;100517.53;5030768;28;20021;-77
2021/07/05 08:13:39;;;;;;;5.97;5.43;;;;;;;20.43;64.94;100508.38;5022670;28;20104;-75
2021/07/05 08:16:04;;;;;;;7.28;6.65;;;;;;;18.90;68.26;100514.41;5016253;28;20022;-77
2021/07/05 08:18:29;;;;;;;8.63;8.02;;;;;;;18.41;69.92;100520.47;5016266;28;20025;-75
2021/07/05 08:20:55;;;;;;;9.02;8.18;;;;;;;18.65;69.78;100520.97;5015922;28;20026;-74
2021/07/05 08:23:20;;;;;;;7.63;7.13;;;;;;;19.35;68.01;100515.44;5028173;28;20037;-74
2021/07/05 08:25:46;;;;;;;8.68;7.95;;;;;;;19.35;67.60;100509.31;5017030;28;20025;-76
2021/07/05 08:28:12;;;;;;;9.43;7.90;;;;;;;19.03;69.54;100520.75;5016196;28;20322;-76
2021/07/05 08:30:37;;;;;;;9.90;9.07;;;;;;;18.55;70.28;100523.22;5033612;28;20029;-74
2021/07/05 08:33:03;;;;;;;9.82;9.02;;;;;;;18.35;70.86;100513.69;5015348;28;20021;-72
2021/07/05 08:35:28;;;;;;;10.30;9.27;;;;;;;18.33;71.31;100526.13;5016591;28;20034;-77
2021/07/05 08:37:55;;;;;;;8.82;7.93;;;;;;;18.42;71.07;100520.38;4993073;28;20033;-76
2021/07/05 08:40:21;;;;;;;9.05;8.25;;;;;;;18.96;70.17;100519.34;5013236;28;20025;-76
2021/07/05 08:42:47;;;;;;;10.55;8.88;;;;;;;19.26;68.64;100521.25;5012448;28;20030;-76
2021/07/05 08:45:13;;;;;;;8.65;8.00;;;;;;;19.50;66.49;100523.50;5012973;28;20037;-76
2021/07/05 08:47:41;;;;;;;8.98;8.18;;;;;;;19.20;68.56;100521.59;4997174;28;20036;-76
2021/07/05 08:50:09;;;;;;;7.38;6.95;;;;;;;19.01;68.23;100522.59;5012152;28;20395;-76
2021/07/05 08:52:35;;;;;;;8.90;8.27;;;;;;;18.75;69.51;100526.63;4994550;28;20270;-77
2021/07/05 08:55:03;;;;;;;8.50;7.88;;;;;;;18.71;70.59;100525.06;4997926;28;20029;-75
2021/07/05 08:57:37;;;;;;;8.60;8.02;;;;;;;18.79;69.99;100528.16;5015592;28;20029;-74
2021/07/05 09:00:06;;;;;;;8.10;7.40;;;;;;;19.21;68.91;100524.16;5032341;28;20113;-75
2021/07/05 09:02:32;;;;;;;8.48;7.88;;;;;;;19.32;67.95;100515.63;5014752;28;20022;-75
2021/07/05 09:04:57;;;;;;;8.18;7.60;;;;;;;19.41;70.02;100520.41;5015882;28;20036;-74
2021/07/05 09:07:23;;;;;;;7.88;7.18;;;;;;;19.20;65.93;100518.97;5014963;28;20025;-75
2021/07/05 09:10:00;;;;;;;8.35;7.65;;;;;;;19.12;67.59;100515.88;5009271;28;20022;-77
2021/07/05 09:12:25;;;;;;;7.93;7.32;;;;;;;19.57;65.56;100511.59;5031909;28;20454;-72
2021/07/05 09:15:14;;;;;;;7.45;6.95;;;;;;;19.89;65.31;100508.91;5032657;28;20025;-77
2021/07/05 09:17:42;;;;;;;7.82;7.30;;;;;;;19.67;64.99;100510.09;5020222;28;20428;-74
2021/07/05 09:20:13;;;;;;;7.47;6.75;;;;;;;19.31;67.52;100515.72;5010165;28;20029;-74
2021/07/05 09:23:09;;;;;;;6.93;6.63;;;;;;;19.85;64.86;100515.31;5027386;28;20033;-75
2021/07/05 09:25:34;;;;;;;;;;;;;;;20.39;64.74;100514.81;5010595;28;20080;-75
2021/07/05 09:28:01;;;;;;;5.88;5.57;;;;;;;20.82;61.12;100509.56;5015904;28;19910;-75
2021/07/05 09:30:35;;;;;;;6.65;6.15;;;;;;;19.99;63.08;100510.09;5016040;28;20036;-75
2021/07/05 09:33:24;;;;;;;5.68;5.35;;;;;;;20.07;64.90;100515.78;5001064;28;20157;-76
2021/07/05 09:35:52;;;;;;;6.45;5.90;;;;;;;19.94;63.73;100506.84;5028403;28;20041;-75
2021/07/05 09:38:50;;;;;;;5.97;5.55;;;;;;;20.26;62.50;100498.81;5023707;28;20056;-75
2021/07/05 09:41:19;;;;;;;5.40;4.93;;;;;;;20.01;63.51;100502.88;5009824;28;20390;-75
2021/07/05 09:43:48;;;;;;;5.10;4.80;;;;;;;20.14;64.43;100510.09;5022979;28;20041;-78
2021/07/05 09:46:14;;;;;;;5.43;4.85;;;;;;;19.86;63.02;100515.22;4996442;28;20096;-74
2021/07/05 09:48:47;;;;;;;4.93;4.47;;;;;;;20.30;61.33;100508.28;4999088;28;20026;-76
2021/07/05 09:51:18;;;;;;;4.75;4.45;;;;;;;20.15;61.49;100511.81;5017010;28;20100;-75
2021/07/05 09:53:44;;;;;;;3.80;3.60;;;;;;;20.42;60.58;100518.16;5017848;28;20025;-75
2021/07/05 09:56:22;;;;;;;5.25;4.85;;;;;;;20.04;62.64;100513.34;5017539;28;20049;-73
2021/07/05 09:58:49;;;;;;;5.45;5.15;;;;;;;20.13;62.58;100505.78;5017353;28;20498;-75
2021/07/05 10:01:36;;;;;;;4.97;4.78;;;;;;;19.96;62.73;100514.72;5006609;28;20017;-75
2021/07/05 10:04:06;;;;;;;4.43;4.13;;;;;;;19.70;64.80;100515.25;5029466;28;20398;-74
2021/07/05 10:06:42;;;;;;;4.55;4.25;;;;;;;20.09;61.21;100511.25;5026623;28;20032;-75
2021/07/05 10:09:09;;;;;;;5.15;4.85;;;;;;;20.28;60.06;100510.16;5016805;28;20025;-74
2021/07/05 10:11:36;;;;;;;4.30;4.00;;;;;;;20.15;62.40;100519.78;5027924;28;20014;-75
2021/07/05 10:14:27;;;;;;;4.43;4.22;;;;;;;20.38;60.03;100526.38;5014447;28;20040;-79
2021/07/05 10:16:53;;;;;;;4.32;4.13;;;;;;;20.40;60.16;100525.34;5022780;28;20029;-82
2021/07/05 10:19:18;;;;;;;3.40;3.17;;;;;;;20.93;59.07;100516.88;5022710;28;20335;-75
2021/07/05 10:21:44;;;;;;;3.20;3.00;;;;;;;21.75;56.31;100520.50;5017981;28;20104;-77
2021/07/05 10:24:10;;;;;;;3.22;2.88;;;;;;;22.00;56.83;100524.16;5025505;28;20378;-74
2021/07/05 10:26:37;;;;;;;3.58;3.38;;;;;;;20.80;57.22;100523.88;5034176;28;20021;-74
2021/07/05 10:29:04;;;;;;;4.40;3.13;;;;;;;20.99;57.21;100520.94;5034690;28;20079;-74
2021/07/05 10:31:32;;;;;;;4.57;4.28;;;;;;;20.48;58.81;100526.66;5016694;28;20028;-73
2021/07/05 10:33:59;;;;;;;3.88;3.65;;;;;;;20.56;59.66;100529.69;5021979;28;20108;-73
2021/07/05 10:36:25;;;;;;;3.47;3.33;;;;;;;21.33;57.71;100529.44;5016629;28;20036;-76
2021/07/05 10:38:53;;;;;;;3.63;3.30;;;;;;;21.22;58.14;100535.41;5017627;28;20025;-77
2021/07/05 10:41:20;;;;;;;4.03;3.72;;;;;;;20.93;57.73;100522.19;5030775;28;20134;-77
2021/07/05 10:43:53;;;;;;;4.32;3.58;;;;;;;20.90;59.50;100535.63;5020148;28;20103;-80
2021/07/05 10:46:44;;;;;;;5.35;2.90;;;;;;;20.54;58.12;100531.59;5037251;28;20021;-78
2021/07/05 10:49:28;;;;;;;2.97;2.47;;;;;;;20.30;59.83;100539.22;5018969;28;20030;-77
2021/07/05 10:51:55;;;;;;;2.80;2.60;;;;;;;20.75;58.75;100533.00;5044309;28;20028;-81
2021/07/05 10:54:50;;;;;;;3.20;3.00;;;;;;;20.59;58.48;100529.53;5031918;28;20052;-75
2021/07/05 10:57:30;;;;;;;3.53;2.30;;;;;;;20.53;57.77;100527.25;5039522;28;20084;-80
2021/07/05 11:00:18;;;;;;;2.85;2.65;;;;;;;20.97;57.47;100523.69;5044472;28;20030;-80
2021/07/05 11:02:45;;;;;;;2.70;2.50;;;;;;;20.81;58.20;100525.59;5037778;28;20018;-79
2021/07/05 11:05:33;;;;;;;2.80;2.65;;;;;;;20.57;58.62;100523.47;5018356;28;20028;-77
2021/07/05 11:08:43;;;;;;;2.45;2.35;;;;;;;20.42;59.86;100525.25;5029184;28;20025;-81
2021/07/05 11:11:25;;;;;;;3.33;2.60;;;;;;;21.13;56.53;100528.03;4997079;28;20049;-79
2021/07/05 11:14:11;;;;;;;2.60;2.50;;;;;;;21.28;57.07;100530.56;5031889;28;20039;-76
2021/07/05 11:17:09;;;;;;;2.22;2.13;;;;;;;21.77;54.55;100517.72;5024065;28;20025;-85
2021/07/05 11:19:41;;;;;;;2.47;2.38;;;;;;;21.32;55.50;100517.94;5063590;28;20084;-81
2021/07/05 11:22:11;;;;;;;2.38;2.17;;;;;;;21.66;56.30;100509.63;5025897;28;20037;-79
2021/07/05 11:24:46;;;;;;;2.20;2.10;;;;;;;21.80;56.80;100520.19;5020338;28;20026;-77
2021/07/05 11:27:26;;;;;;;2.50;2.30;;;;;;;21.61;55.82;100520.56;5015331;28;20027;-77